Time;durP1;ratioP1;P1;durP2;ratioP2;P2;SDS_P1;SDS_P2;PMS_P1;PMS_P2;Temp;Humidity;BMP_temperature;BMP_pressure;BME280_temperature;BME280_humidity;BME280_pressure;Samples;Min_cycle;Max_cycle;Signal;HPM_P1;HPM_P2
2023/12/12 00:00:21;;;;;;;9.87;5.37;;;12.30;99.90;;;;;;5038468;28;20035;-72
2023/12/12 00:02:46;;;;;;;10.47;4.07;;;12.30;99.90;;;;;;5041694;28;20100;-72
2023/12/12 00:05:13;;;;;;;11.47;4.70;;;12.40;99.90;;;;;;5040178;28;20025;-73
2023/12/12 00:07:39;;;;;;;;;;;12.40;99.90;;;;;;5033257;28;20033;-73
2023/12/12 00:10:05;;;;;;;8.07;4.38;;;12.30;99.90;;;;;;5043229;28;20018;-72
2023/12/12 00:12:31;;;;;;;13.30;5.05;;;12.30;99.90;;;;;;5042132;28;20083;-71
2023/12/12 00:14:57;;;;;;;9.77;5.05;;;12.20;99.90;;;;;;5040377;28;20024;-72
2023/12/12 00:17:23;;;;;;;15.83;6.10;;;12.20;99.90;;;;;;5040048;28;20037;-72
2023/12/12 00:19:48;;;;;;;14.53;7.33;;;12.10;99.90;;;;;;5040683;28;20283;-71
2023/12/12 00:22:14;;;;;;;15.50;6.40;;;12.10;99.90;;;;;;5044549;28;20039;-72
2023/12/12 00:24:39;;;;;;;16.60;6.40;;;12.10;99.90;;;;;;5048150;28;20612;-72
2023/12/12 00:27:05;;;;;;;15.60;5.97;;;12.10;99.90;;;;;;5038973;28;20041;-72
2023/12/12 00:29:31;;;;;;;12.70;6.07;;;12.10;99.90;;;;;;5034857;28;20382;-73
2023/12/12 00:31:56;;;;;;;15.43;6.47;;;12.10;99.90;;;;;;5040086;28;20040;-72
2023/12/12 00:34:22;;;;;;;12.10;6.07;;;12.10;99.90;;;;;;5038210;28;20033;-72
2023/12/12 00:36:47;;;;;;;12.17;6.97;;;12.00;99.90;;;;;;5041751;28;20048;-69
2023/12/12 00:39:13;;;;;;;9.27;5.67;;;12.10;99.90;;;;;;5039460;28;20756;-69
2023/12/12 00:41:38;;;;;;;12.03;6.30;;;12.10;99.90;;;;;;5034865;28;20033;-69
2023/12/12 00:44:04;;;;;;;10.10;6.07;;;12.10;99.90;;;;;;5042639;28;20033;-69
2023/12/12 00:46:30;;;;;;;16.47;6.20;;;12.00;99.90;;;;;;5037939;28;20021;-68
2023/12/12 00:48:55;;;;;;;11.70;6.20;;;12.10;99.90;;;;;;5038815;28;20067;-68
2023/12/12 00:51:21;;;;;;;15.73;7.20;;;12.00;99.90;;;;;;5041410;28;20033;-69
2023/12/12 00:53:46;;;;;;;9.43;6.30;;;11.90;99.90;;;;;;5037099;28;20049;-69
2023/12/12 00:56:12;;;;;;;15.27;6.07;;;12.00;99.90;;;;;;5039662;28;20025;-73
2023/12/12 00:58:38;;;;;;;9.13;6.30;;;12.00;99.90;;;;;;5048258;28;20436;-70
2023/12/12 01:01:04;;;;;;;18.98;7.20;;;11.90;99.90;;;;;;5045890;28;20768;-71
2023/12/12 01:03:30;;;;;;;18.70;8.50;;;12.00;99.90;;;;;;5046804;28;20025;-72
2023/12/12 01:05:56;;;;;;;12.13;7.50;;;11.90;99.90;;;;;;5060429;28;20087;-70
2023/12/12 01:08:21;;;;;;;11.83;6.93;;;11.90;99.90;;;;;;5052908;28;20084;-71
2023/12/12 01:10:47;;;;;;;17.97;6.97;;;11.90;99.90;;;;;;5052515;28;20039;-72
2023/12/12 01:13:12;;;;;;;15.20;7.30;;;11.90;99.90;;;;;;5053183;28;20493;-72
2023/12/12 01:15:38;;;;;;;15.20;7.40;;;11.90;99.90;;;;;;5048786;28;20481;-73
2023/12/12 01:18:03;;;;;;;10.13;7.07;;;11.90;99.90;;;;;;5033481;28;20030;-72
2023/12/12 01:20:29;;;;;;;13.40;7.67;;;11.90;99.90;;;;;;5032645;28;20026;-73
2023/12/12 01:22:55;;;;;;;13.20;7.13;;;11.90;99.90;;;;;;5047029;28;20021;-71
2023/12/12 01:25:20;;;;;;;13.17;6.60;;;11.80;99.90;;;;;;5072545;28;20544;-71
2023/12/12 01:27:46;;;;;;;11.73;7.07;;;11.90;99.90;;;;;;5072532;28;20029;-72
2023/12/12 01:30:11;;;;;;;13.10;7.50;;;11.80;99.90;;;;;;5072566;28;20033;-71
2023/12/12 01:32:37;;;;;;;14.90;7.73;;;11.80;99.90;;;;;;5073415;28;20068;-72
2023/12/12 01:35:03;;;;;;;12.27;7.30;;;11.80;99.90;;;;;;5073010;28;20404;-73
2023/12/12 01:37:28;;;;;;;21.40;6.93;;;11.80;99.90;;;;;;5073145;28;20024;-72
2023/12/12 01:39:54;;;;;;;14.97;8.07;;;11.80;99.90;;;;;;5073169;28;21051;-73
2023/12/12 01:42:20;;;;;;;17.20;6.93;;;11.90;99.90;;;;;;5072672;28;20028;-72
2023/12/12 01:44:45;;;;;;;20.27;7.23;;;11.90;99.90;;;;;;5072931;28;20073;-72
2023/12/12 01:47:11;;;;;;;12.47;6.73;;;11.90;99.90;;;;;;5073149;28;20029;-72
2023/12/12 01:49:37;;;;;;;11.43;6.82;;;11.90;99.90;;;;;;5073600;28;20063;-73
2023/12/12 01:52:03;;;;;;;15.02;8.45;;;11.90;99.90;;;;;;5073799;28;20431;-73
2023/12/12 01:54:29;;;;;;;15.15;7.35;;;11.90;99.90;;;;;;5073564;28;20028;-73
2023/12/12 01:56:55;;;;;;;;;;;11.80;99.90;;;;;;5072384;28;20040;-74
2023/12/12 01:59:22;;;;;;;14.45;7.13;;;11.80;99.90;;;;;;5073318;28;20037;-74
2023/12/12 02:01:49;;;;;;;21.85;6.97;;;11.90;99.90;;;;;;5072654;28;20073;-72
2023/12/12 02:04:15;;;;;;;17.58;7.10;;;11.90;99.90;;;;;;5072617;28;20886;-73
2023/12/12 02:06:44;;;;;;;20.42;8.00;;;11.90;99.90;;;;;;5071080;28;20032;-73
2023/12/12 02:09:11;;;;;;;17.95;7.70;;;11.90;99.90;;;;;;5070170;28;20708;-73
2023/12/12 02:11:36;;;;;;;13.18;6.95;;;11.80;99.90;;;;;;5070821;28;20051;-73
2023/12/12 02:14:02;;;;;;;16.70;7.27;;;11.80;99.90;;;;;;5069638;28;20033;-70
2023/12/12 02:16:27;;;;;;;18.90;7.43;;;11.80;99.90;;;;;;5069274;28;20050;-72
2023/12/12 02:18:53;;;;;;;18.20;8.17;;;11.80;99.90;;;;;;5069245;28;20031;-68
2023/12/12 02:21:20;;;;;;;12.70;7.47;;;11.80;99.90;;;;;;5069462;28;20814;-72
2023/12/12 02:23:48;;;;;;;25.65;9.70;;;11.80;99.90;;;;;;5057596;28;20036;-73
2023/12/12 02:26:14;;;;;;;13.73;7.65;;;11.70;99.90;;;;;;5049348;28;20033;-72
2023/12/12 02:28:40;;;;;;;13.55;7.97;;;11.70;99.90;;;;;;5048946;28;20028;-71
2023/12/12 02:31:06;;;;;;;14.63;7.82;;;11.70;99.90;;;;;;5049436;28;20052;-69
2023/12/12 02:33:32;;;;;;;17.63;6.90;;;11.70;99.90;;;;;;5049786;28;20244;-68
2023/12/12 02:35:57;;;;;;;11.73;6.57;;;11.70;99.90;;;;;;5049415;28;20033;-69
2023/12/12 02:38:23;;;;;;;8.57;4.73;;;11.70;99.90;;;;;;5049475;28;20496;-68
2023/12/12 02:40:48;;;;;;;24.30;7.10;;;11.80;99.90;;;;;;5049168;28;20135;-67
2023/12/12 02:43:14;;;;;;;14.23;6.70;;;11.90;99.90;;;;;;5049222;28;20175;-67
2023/12/12 02:45:40;;;;;;;12.53;6.90;;;11.90;99.90;;;;;;5049378;28;20086;-68
2023/12/12 02:48:05;;;;;;;11.13;5.63;;;12.00;99.90;;;;;;5048918;28;20033;-68
2023/12/12 02:50:31;;;;;;;8.55;5.07;;;12.00;99.90;;;;;;5049107;28;20067;-68
2023/12/12 02:52:57;;;;;;;9.83;4.77;;;12.00;99.90;;;;;;5048915;28;20049;-68
2023/12/12 02:55:22;;;;;;;10.70;4.17;;;12.10;99.90;;;;;;5049328;28;20509;-68
2023/12/12 02:57:48;;;;;;;5.90;3.80;;;12.10;99.90;;;;;;5048972;28;20088;-68
2023/12/12 03:00:14;;;;;;;5.60;3.43;;;12.00;99.90;;;;;;5049178;28;20025;-72
2023/12/12 03:02:40;;;;;;;6.80;2.17;;;12.00;99.90;;;;;;5049244;28;20025;-72
2023/12/12 03:05:05;;;;;;;7.13;2.13;;;12.10;99.90;;;;;;5048633;28;20610;-73
2023/12/12 03:07:31;;;;;;;4.20;2.23;;;12.10;99.90;;;;;;5040568;28;20112;-71
2023/12/12 03:09:57;;;;;;;9.13;4.47;;;12.20;99.90;;;;;;5028636;28;20264;-73
2023/12/12 03:12:22;;;;;;;5.63;3.53;;;12.10;99.90;;;;;;5036494;28;20044;-71
2023/12/12 03:14:49;;;;;;;8.90;4.20;;;12.00;99.90;;;;;;5049136;28;20025;-73
2023/12/12 03:17:14;;;;;;;10.50;4.25;;;12.10;99.90;;;;;;5055627;28;20028;-73
2023/12/12 03:19:40;;;;;;;11.27;5.87;;;12.00;99.90;;;;;;5048277;28;20103;-72
2023/12/12 03:22:05;;;;;;;13.30;6.50;;;11.90;99.90;;;;;;5037440;28;20108;-71
2023/12/12 03:24:31;;;;;;;8.87;5.57;;;11.90;99.90;;;;;;5052663;28;20032;-71
2023/12/12 03:26:56;;;;;;;13.83;5.50;;;11.90;99.90;;;;;;5048275;28;20037;-72
2023/12/12 03:29:22;;;;;;;8.13;4.80;;;11.90;99.90;;;;;;5048622;28;20485;-72
2023/12/12 03:31:48;;;;;;;10.37;5.77;;;11.90;99.90;;;;;;5048128;28;20040;-72
2023/12/12 03:34:13;;;;;;;12.53;5.53;;;11.90;99.90;;;;;;5040009;28;20177;-69
2023/12/12 03:36:43;;;;;;;12.20;5.63;;;11.90;99.90;;;;;;5028308;28;20630;-72
2023/12/12 03:39:09;;;;;;;17.27;5.97;;;11.90;99.90;;;;;;5028158;28;20401;-73
2023/12/12 03:41:35;;;;;;;21.88;5.80;;;11.90;99.90;;;;;;5028035;28;20029;-73
2023/12/12 03:44:01;;;;;;;9.03;5.50;;;11.90;99.90;;;;;;5028182;28;20409;-73
2023/12/12 03:46:26;;;;;;;11.27;5.37;;;11.80;99.90;;;;;;5028632;28;20071;-72
2023/12/12 03:48:52;;;;;;;8.20;5.03;;;11.80;99.90;;;;;;5028742;28;20548;-72
2023/12/12 03:51:18;;;;;;;11.23;6.53;;;11.80;99.90;;;;;;5028071;28;20778;-73
2023/12/12 03:53:43;;;;;;;7.10;5.03;;;11.80;99.90;;;;;;5027835;28;20029;-71
2023/12/12 03:56:09;;;;;;;13.90;5.87;;;11.70;99.90;;;;;;5027880;28;20017;-70
2023/12/12 03:58:35;;;;;;;8.90;5.43;;;11.80;99.90;;;;;;5032200;28;20029;-72
2023/12/12 04:01:01;;;;;;;9.40;5.53;;;11.80;99.90;;;;;;5046881;28;20322;-73
2023/12/12 04:03:26;;;;;;;11.95;5.95;;;11.80;99.90;;;;;;5047364;28;20460;-73
2023/12/12 04:05:52;;;;;;;9.83;6.53;;;11.80;99.90;;;;;;5047163;28;20040;-71
2023/12/12 04:08:18;;;;;;;10.03;6.50;;;11.70;99.90;;;;;;5045269;28;20100;-72
2023/12/12 04:10:43;;;;;;;13.90;7.23;;;11.80;99.90;;;;;;5035788;28;20367;-72
2023/12/12 04:13:09;;;;;;;15.73;7.00;;;11.80;99.90;;;;;;5039418;28;20040;-72
2023/12/12 04:15:36;;;;;;;11.98;7.00;;;11.70;99.90;;;;;;5034480;28;20120;-69
2023/12/12 04:18:01;;;;;;;9.85;6.43;;;11.70;99.90;;;;;;5033439;28;20029;-69
2023/12/12 04:20:27;;;;;;;13.70;6.90;;;11.80;99.90;;;;;;5033958;28;20037;-69
2023/12/12 04:22:53;;;;;;;19.63;7.53;;;11.80;99.90;;;;;;5054550;28;20032;-68
2023/12/12 04:25:23;;;;;;;13.77;7.50;;;11.80;99.90;;;;;;5044196;28;20121;-72
2023/12/12 04:27:48;;;;;;;14.38;6.75;;;11.70;99.90;;;;;;5032889;28;20043;-68
2023/12/12 04:30:14;;;;;;;12.45;8.45;;;11.70;99.90;;;;;;5039858;28;20115;-71
2023/12/12 04:32:40;;;;;;;19.83;7.80;;;11.70;99.90;;;;;;5035623;28;20099;-70
2023/12/12 04:35:08;;;;;;;15.10;7.37;;;11.70;99.90;;;;;;5032973;28;20029;-69
2023/12/12 04:37:34;;;;;;;15.32;8.13;;;11.60;99.90;;;;;;5037062;28;20029;-73
2023/12/12 04:39:59;;;;;;;15.23;8.40;;;11.60;99.90;;;;;;5027401;28;20099;-68
2023/12/12 04:42:25;;;;;;;17.80;7.90;;;11.60;99.90;;;;;;5036330;28;20025;-71
2023/12/12 04:44:50;;;;;;;11.93;7.73;;;11.60;99.90;;;;;;5032131;28;20029;-71
2023/12/12 04:47:16;;;;;;;12.40;7.30;;;11.60;99.90;;;;;;5038476;28;20548;-69
2023/12/12 04:49:42;;;;;;;15.63;7.80;;;11.60;99.90;;;;;;5036046;28;20531;-69
2023/12/12 04:52:09;;;;;;;13.30;6.38;;;11.60;99.90;;;;;;5033978;28;20048;-69
2023/12/12 04:54:35;;;;;;;11.48;5.53;;;11.60;99.90;;;;;;5035265;28;20032;-71
2023/12/12 04:57:00;;;;;;;13.83;5.20;;;11.80;99.90;;;;;;5035819;28;20033;-68
2023/12/12 04:59:26;;;;;;;15.40;6.27;;;11.80;99.90;;;;;;5035250;28;20040;-69
2023/12/12 05:01:52;;;;;;;8.93;3.95;;;11.90;99.90;;;;;;5037076;28;20043;-69
2023/12/12 05:04:17;;;;;;;7.97;3.23;;;11.80;99.90;;;;;;5033606;28;20112;-68
2023/12/12 05:06:43;;;;;;;4.15;2.00;;;11.90;99.90;;;;;;5035237;28;20068;-68
2023/12/12 05:09:09;;;;;;;2.77;1.57;;;12.00;99.90;;;;;;5030734;28;20140;-72
2023/12/12 05:11:34;;;;;;;5.00;1.67;;;12.30;99.90;;;;;;5035017;28;20640;-72
2023/12/12 05:14:00;;;;;;;6.43;1.60;;;12.30;99.90;;;;;;5037237;28;20580;-73
2023/12/12 05:16:26;;;;;;;4.95;1.55;;;12.30;99.90;;;;;;5037170;28;20370;-72
2023/12/12 05:18:54;;;;;;;4.85;1.27;;;12.20;99.90;;;;;;5035228;28;20052;-72
2023/12/12 05:21:21;;;;;;;6.85;1.85;;;12.20;99.90;;;;;;5052310;28;20037;-72
2023/12/12 05:23:48;;;;;;;6.85;1.55;;;12.30;99.90;;;;;;5039560;28;20032;-72
2023/12/12 05:26:14;;;;;;;4.40;1.10;;;12.30;99.90;;;;;;5038631;28;20024;-72
2023/12/12 05:28:40;;;;;;;2.65;1.63;;;12.40;99.90;;;;;;5034127;28;20056;-71
2023/12/12 05:31:06;;;;;;;4.03;1.08;;;12.50;99.90;;;;;;5032771;28;20057;-72
2023/12/12 05:33:32;;;;;;;6.43;1.30;;;12.50;99.90;;;;;;5035680;28;20038;-71
2023/12/12 05:35:58;;;;;;;2.92;1.70;;;12.40;99.90;;;;;;5033576;28;20274;-71
2023/12/12 05:38:24;;;;;;;2.20;1.27;;;12.30;99.90;;;;;;5058883;28;20030;-71
2023/12/12 05:40:50;;;;;;;2.37;1.20;;;12.30;99.90;;;;;;5034768;28;20754;-72
2023/12/12 05:43:16;;;;;;;1.92;1.10;;;12.30;99.90;;;;;;5039441;28;20025;-72
2023/12/12 05:45:41;;;;;;;6.30;2.17;;;12.20;99.90;;;;;;5040672;28;20877;-71
2023/12/12 05:48:07;;;;;;;4.53;2.60;;;12.20;99.90;;;;;;5040210;28;20032;-70
2023/12/12 05:50:32;;;;;;;7.67;3.37;;;12.10;99.90;;;;;;5038533;28;20043;-70
2023/12/12 05:52:58;;;;;;;7.97;3.10;;;12.10;99.90;;;;;;5038354;28;20504;-69
2023/12/12 05:55:24;;;;;;;5.95;3.22;;;12.00;99.90;;;;;;5038421;28;20036;-72
2023/12/12 05:57:49;;;;;;;6.43;3.20;;;12.00;99.90;;;;;;5038733;28;20044;-70
2023/12/12 06:00:15;;;;;;;15.43;7.07;;;12.00;99.90;;;;;;5038886;28;20030;-72
2023/12/12 06:02:41;;;;;;;15.82;5.65;;;12.00;99.90;;;;;;5040544;28;20500;-70
2023/12/12 06:05:07;;;;;;;8.02;3.42;;;11.90;99.90;;;;;;5039785;28;20025;-72
2023/12/12 06:07:37;;;;;;;9.50;3.40;;;12.00;99.90;;;;;;5039241;28;20041;-71
2023/12/12 06:10:05;;;;;;;6.75;2.75;;;12.00;99.90;;;;;;5041856;28;20040;-72
2023/12/12 06:12:31;;;;;;;4.38;1.70;;;12.00;99.90;;;;;;5037012;28;20036;-69
2023/12/12 06:14:57;;;;;;;8.90;1.98;;;12.20;99.90;;;;;;5038379;28;20481;-69
2023/12/12 06:17:23;;;;;;;5.95;1.98;;;12.20;99.90;;;;;;5033332;28;20052;-73
2023/12/12 06:19:49;;;;;;;5.57;2.38;;;12.20;99.90;;;;;;5040046;28;20052;-73
2023/12/12 06:22:15;;;;;;;11.40;3.05;;;12.10;99.90;;;;;;5034481;28;20501;-71
2023/12/12 06:24:41;;;;;;;7.60;3.73;;;12.10;99.90;;;;;;5061312;28;20021;-73
2023/12/12 06:27:06;;;;;;;10.87;4.00;;;12.10;99.90;;;;;;5035909;28;20538;-71
2023/12/12 06:29:32;;;;;;;7.10;3.60;;;12.00;99.90;;;;;;5038303;28;20508;-73
2023/12/12 06:31:58;;;;;;;6.97;3.45;;;11.90;99.90;;;;;;5037860;28;20041;-72
2023/12/12 06:34:23;;;;;;;7.13;3.60;;;12.00;99.90;;;;;;5037583;28;20033;-72
2023/12/12 06:36:49;;;;;;;7.43;3.87;;;11.90;99.90;;;;;;5044192;28;20139;-71
2023/12/12 06:39:14;;;;;;;15.87;4.83;;;11.90;99.90;;;;;;5040996;28;20033;-72
2023/12/12 06:41:41;;;;;;;;;;;11.90;99.90;;;;;;5041589;28;20049;-74
2023/12/12 06:44:07;;;;;;;27.88;5.97;;;11.90;99.90;;;;;;5031331;28;20323;-73
2023/12/12 06:46:32;;;;;;;33.73;5.77;;;11.90;99.90;;;;;;5039234;28;20135;-72
2023/12/12 06:48:58;;;;;;;14.00;5.13;;;11.70;99.90;;;;;;5037750;28;20053;-71
2023/12/12 06:51:23;;;;;;;19.83;5.03;;;11.70;99.90;;;;;;5054028;28;20033;-73
2023/12/12 06:53:52;;;;;;;10.80;5.40;;;11.70;99.90;;;;;;5039008;28;20082;-73
2023/12/12 06:56:19;;;;;;;20.63;6.20;;;11.70;99.90;;;;;;5039024;28;20029;-73
2023/12/12 06:58:46;;;;;;;7.80;3.78;;;11.70;99.90;;;;;;5038551;28;20037;-74
2023/12/12 07:01:13;;;;;;;12.68;4.30;;;11.60;99.90;;;;;;5036803;28;20108;-74
2023/12/12 07:03:38;;;;;;;6.95;2.75;;;11.70;99.90;;;;;;5036993;28;20052;-68
2023/12/12 07:06:04;;;;;;;7.40;3.17;;;11.70;99.90;;;;;;5037075;28;20025;-69
2023/12/12 07:08:30;;;;;;;6.40;3.03;;;11.80;99.90;;;;;;5042871;28;20025;-70
2023/12/12 07:10:55;;;;;;;10.03;2.70;;;11.80;99.90;;;;;;5041321;28;20108;-69
2023/12/12 07:13:21;;;;;;;6.50;2.20;;;11.90;99.90;;;;;;5036256;28;20059;-69
2023/12/12 07:15:47;;;;;;;7.10;2.83;;;12.00;99.90;;;;;;5037679;28;20029;-71
2023/12/12 07:18:14;;;;;;;6.40;2.63;;;12.00;99.90;;;;;;5043145;28;20119;-69
2023/12/12 07:20:41;;;;;;;9.00;3.38;;;12.00;99.90;;;;;;5037954;28;20071;-71
2023/12/12 07:23:07;;;;;;;9.80;3.17;;;11.90;99.90;;;;;;5041519;28;20033;-70
2023/12/12 07:25:33;;;;;;;3.65;2.08;;;12.10;99.90;;;;;;5036577;28;20083;-72
2023/12/12 07:27:58;;;;;;;4.72;2.38;;;12.10;99.90;;;;;;5040013;28;20132;-72
2023/12/12 07:30:24;;;;;;;7.73;2.30;;;12.20;99.90;;;;;;5036357;28;20029;-71
2023/12/12 07:32:49;;;;;;;6.77;2.70;;;12.30;99.90;;;;;;5034056;28;20121;-69
2023/12/12 07:35:16;;;;;;;8.10;2.50;;;12.30;99.90;;;;;;5038144;28;20032;-72
2023/12/12 07:37:42;;;;;;;10.38;2.17;;;12.30;99.90;;;;;;5041811;28;20044;-71
2023/12/12 07:40:08;;;;;;;13.73;2.65;;;12.30;99.90;;;;;;5039561;28;20143;-71
2023/12/12 07:42:34;;;;;;;8.23;2.50;;;12.30;99.90;;;;;;5036863;28;20025;-71
2023/12/12 07:45:01;;;;;;;3.45;1.90;;;12.30;99.90;;;;;;5030531;28;20079;-74
2023/12/12 07:47:27;;;;;;;4.78;2.25;;;12.30;99.90;;;;;;5037755;28;20036;-72
2023/12/12 07:49:53;;;;;;;5.30;2.07;;;12.40;99.90;;;;;;5034695;28;20465;-73
2023/12/12 07:52:19;;;;;;;8.43;1.88;;;12.40;99.90;;;;;;5033721;28;20550;-69
2023/12/12 07:54:45;;;;;;;3.47;2.27;;;12.50;99.90;;;;;;5041672;28;20036;-72
2023/12/12 07:57:10;;;;;;;7.63;3.37;;;12.50;99.90;;;;;;5043301;28;20025;-73
2023/12/12 07:59:36;;;;;;;6.17;2.63;;;12.50;99.90;;;;;;5045166;28;20057;-72
2023/12/12 08:02:01;;;;;;;4.20;1.53;;;12.70;99.90;;;;;;5044195;28;20025;-72
2023/12/12 08:04:27;;;;;;;4.43;2.30;;;12.80;99.90;;;;;;5031240;28;20120;-70
2023/12/12 08:06:53;;;;;;;9.57;2.15;;;12.80;99.90;;;;;;5039501;28;20115;-70
2023/12/12 08:09:19;;;;;;;5.50;2.63;;;12.80;99.90;;;;;;5044323;28;20131;-73
2023/12/12 08:11:44;;;;;;;6.60;2.20;;;12.70;99.90;;;;;;5029100;28;20060;-72
2023/12/12 08:14:10;;;;;;;4.60;1.80;;;12.70;99.90;;;;;;5034593;28;20038;-73
2023/12/12 08:16:36;;;;;;;3.70;1.60;;;12.70;99.90;;;;;;5035324;28;20037;-73
2023/12/12 08:19:01;;;;;;;5.80;1.93;;;12.70;99.90;;;;;;5039529;28;20287;-73
2023/12/12 08:21:27;;;;;;;2.50;1.60;;;12.70;99.90;;;;;;5034670;28;20029;-74
2023/12/12 08:23:54;;;;;;;3.97;2.00;;;12.80;99.90;;;;;;5036991;28;20395;-72
2023/12/12 08:26:22;;;;;;;5.50;1.80;;;12.80;99.90;;;;;;5038693;28;20034;-72
2023/12/12 08:28:48;;;;;;;5.40;1.52;;;12.90;99.90;;;;;;5033924;28;20143;-71
2023/12/12 08:31:14;;;;;;;2.83;1.50;;;12.90;99.90;;;;;;5036015;28;20056;-73
2023/12/12 08:33:39;;;;;;;6.67;3.03;;;12.90;99.90;;;;;;5036677;28;20073;-70
2023/12/12 08:36:06;;;;;;;6.20;2.03;;;13.00;99.90;;;;;;5040621;28;20056;-69
2023/12/12 08:38:32;;;;;;;3.45;1.88;;;13.00;99.90;;;;;;5033060;28;20496;-74
2023/12/12 08:40:59;;;;;;;4.80;2.47;;;13.10;99.90;;;;;;5036263;28;20116;-72
2023/12/12 08:43:25;;;;;;;;;;;13.20;99.90;;;;;;5039562;28;20099;-71
2023/12/12 08:45:52;;;;;;;5.30;2.08;;;13.20;99.90;;;;;;5033800;28;19913;-74
2023/12/12 08:48:18;;;;;;;7.10;2.60;;;13.20;99.90;;;;;;5050718;28;20042;-77
2023/12/12 08:50:44;;;;;;;4.97;3.20;;;13.20;99.90;;;;;;5046376;28;20417;-73
2023/12/12 08:53:10;;;;;;;7.00;3.50;;;13.20;99.90;;;;;;5037945;28;20299;-71
2023/12/12 08:55:36;;;;;;;8.85;3.10;;;13.20;99.90;;;;;;5027785;28;20614;-72
2023/12/12 08:58:04;;;;;;;8.23;2.80;;;13.20;99.90;;;;;;5035684;28;20065;-70
2023/12/12 09:00:30;;;;;;;8.68;2.53;;;13.20;99.90;;;;;;5034840;28;20025;-70
2023/12/12 09:02:56;;;;;;;10.80;3.67;;;13.20;99.90;;;;;;5034416;28;20033;-73
2023/12/12 09:05:21;;;;;;;7.07;3.60;;;13.20;99.90;;;;;;5037980;28;20555;-71
2023/12/12 09:07:47;;;;;;;7.93;3.87;;;13.30;99.90;;;;;;5037948;28;20037;-71
2023/12/12 09:10:12;;;;;;;12.57;4.60;;;13.30;99.90;;;;;;5029670;28;20037;-71
2023/12/12 09:12:38;;;;;;;13.43;4.03;;;13.30;99.90;;;;;;5051210;28;20041;-71
2023/12/12 09:15:05;;;;;;;9.32;5.65;;;13.30;99.90;;;;;;5037304;28;20537;-70
2023/12/12 09:17:31;;;;;;;8.85;4.00;;;13.40;99.90;;;;;;5041186;28;20112;-71
2023/12/12 09:19:57;;;;;;;6.83;3.90;;;13.40;99.90;;;;;;5041759;28;20137;-71
2023/12/12 09:22:23;;;;;;;5.67;2.80;;;13.50;99.90;;;;;;5041547;28;20041;-70
2023/12/12 09:24:48;;;;;;;3.50;2.85;;;13.50;99.90;;;;;;5045329;28;20064;-70
2023/12/12 09:27:14;;;;;;;8.97;3.60;;;13.50;99.90;;;;;;5041241;28;20039;-71
2023/12/12 09:29:41;;;;;;;5.05;3.30;;;13.50;99.90;;;;;;5040011;28;20041;-70
2023/12/12 09:32:07;;;;;;;4.93;2.65;;;13.60;99.90;;;;;;5044880;28;20047;-74
2023/12/12 09:34:33;;;;;;;6.07;2.90;;;13.60;99.90;;;;;;5042877;28;20037;-75
2023/12/12 09:36:58;;;;;;;3.80;2.40;;;13.50;99.90;;;;;;5037814;28;20041;-74
2023/12/12 09:39:24;;;;;;;4.00;2.30;;;13.50;99.90;;;;;;5034597;28;20040;-74
2023/12/12 09:41:50;;;;;;;6.50;2.13;;;13.40;99.90;;;;;;5034834;28;20035;-71
2023/12/12 09:44:17;;;;;;;4.90;2.38;;;13.40;99.90;;;;;;5054256;28;20021;-72
2023/12/12 09:46:43;;;;;;;3.13;2.15;;;13.40;99.90;;;;;;5039111;28;20052;-74
2023/12/12 09:49:11;;;;;;;4.47;2.33;;;13.40;99.90;;;;;;5044405;28;20064;-74
2023/12/12 09:51:43;;;;;;;2.75;1.95;;;13.40;99.90;;;;;;5038622;28;20037;-75
2023/12/12 09:54:11;;;;;;;4.85;2.22;;;13.50;99.90;;;;;;5046849;28;20549;-75
2023/12/12 09:56:37;;;;;;;4.60;1.90;;;13.50;99.90;;;;;;5042325;28;20048;-73
2023/12/12 09:59:04;;;;;;;3.83;1.90;;;13.60;99.90;;;;;;5038997;28;20033;-74
2023/12/12 10:01:31;;;;;;;;;;;13.70;99.90;;;;;;5041006;28;20025;-74
2023/12/12 10:03:58;;;;;;;;;;;13.80;99.90;;;;;;5041248;28;19924;-75
2023/12/12 10:06:26;;;;;;;6.30;1.80;;;13.80;99.90;;;;;;5038707;28;20357;-71
2023/12/12 10:08:52;;;;;;;6.63;2.35;;;13.90;99.90;;;;;;5038806;28;20132;-76
2023/12/12 10:11:19;;;;;;;3.27;1.70;;;13.90;99.90;;;;;;5038483;28;20115;-75
2023/12/12 10:13:54;;;;;;;8.38;2.15;;;13.90;99.90;;;;;;5042182;28;20037;-73
2023/12/12 10:16:20;;;;;;;3.17;1.88;;;14.00;99.90;;;;;;5038807;28;20436;-75
2023/12/12 10:18:46;;;;;;;2.10;1.45;;;14.00;99.90;;;;;;5037597;28;20397;-75
2023/12/12 10:21:22;;;;;;;3.60;1.50;;;14.00;99.90;;;;;;5038922;28;20029;-77
2023/12/12 10:23:50;;;;;;;4.75;1.77;;;14.00;99.90;;;;;;5036142;28;20048;-74
2023/12/12 10:26:27;;;;;;;5.80;1.73;;;14.00;99.90;;;;;;5038472;28;20037;-73
2023/12/12 10:28:54;;;;;;;4.75;2.22;;;13.90;99.90;;;;;;5040804;28;20052;-73
2023/12/12 10:31:20;;;;;;;2.38;1.30;;;13.90;99.90;;;;;;5041989;28;20041;-73
2023/12/12 10:33:47;;;;;;;2.55;1.50;;;13.90;99.90;;;;;;5040097;28;20028;-75
2023/12/12 10:36:12;;;;;;;6.30;1.80;;;13.80;99.90;;;;;;5037917;28;20036;-77
2023/12/12 10:38:39;;;;;;;2.87;1.73;;;13.80;99.90;;;;;;5042195;28;20029;-75
2023/12/12 10:41:15;;;;;;;3.50;1.85;;;13.80;99.90;;;;;;5037711;28;20057;-73
2023/12/12 10:43:43;;;;;;;7.38;2.25;;;13.80;99.90;;;;;;5032958;28;20505;-74
2023/12/12 10:46:17;;;;;;;5.25;2.33;;;13.90;99.90;;;;;;5035887;28;20033;-73
2023/12/12 10:48:48;;;;;;;4.43;2.33;;;14.00;99.90;;;;;;5036935;28;20033;-73
2023/12/12 10:51:15;;;;;;;8.32;3.67;;;14.00;99.90;;;;;;5035181;28;20033;-74
2023/12/12 10:53:42;;;;;;;9.77;3.20;;;13.90;99.90;;;;;;5038655;28;20048;-74
2023/12/12 10:56:10;;;;;;;12.02;3.40;;;13.90;99.90;;;;;;5036905;28;20037;-74
2023/12/12 10:58:37;;;;;;;7.00;3.30;;;13.90;99.90;;;;;;5034730;28;20108;-74
2023/12/12 11:01:05;;;;;;;7.47;2.75;;;13.90;99.90;;;;;;5041198;28;20013;-72
2023/12/12 11:03:31;;;;;;;5.32;2.80;;;13.90;99.90;;;;;;5045104;28;20398;-72
2023/12/12 11:05:58;;;;;;;7.85;3.70;;;13.90;99.90;;;;;;5042202;28;20025;-72
2023/12/12 11:08:26;;;;;;;12.68;4.40;;;14.00;99.90;;;;;;5061404;28;20043;-72
2023/12/12 11:10:52;;;;;;;12.43;4.72;;;13.90;99.90;;;;;;5045177;28;20037;-73
2023/12/12 11:13:26;;;;;;;10.30;4.85;;;13.90;99.90;;;;;;5039975;28;20179;-73
2023/12/12 11:15:53;;;;;;;13.02;5.57;;;13.80;99.90;;;;;;5042436;28;20056;-72
2023/12/12 11:18:22;;;;;;;17.50;5.75;;;13.80;99.90;;;;;;5055068;28;20033;-74
2023/12/12 11:20:47;;;;;;;11.68;5.57;;;13.70;99.90;;;;;;5036683;28;20145;-74
2023/12/12 11:23:41;;;;;;;10.40;5.73;;;13.70;99.90;;;;;;5038970;28;20159;-72
2023/12/12 11:26:08;;;;;;;10.85;5.53;;;13.70;99.90;;;;;;5035161;28;20045;-73
2023/12/12 11:28:35;;;;;;;10.35;4.88;;;13.60;99.90;;;;;;5037688;28;20081;-73
2023/12/12 11:31:01;;;;;;;8.15;4.75;;;13.70;99.90;;;;;;5038088;28;20037;-72
2023/12/12 11:33:28;;;;;;;16.77;6.63;;;13.60;99.90;;;;;;5036198;28;20521;-72
2023/12/12 11:35:54;;;;;;;12.73;6.07;;;13.70;99.90;;;;;;5044104;28;20252;-71
2023/12/12 11:38:30;;;;;;;11.20;5.87;;;13.70;99.90;;;;;;5038298;28;20037;-73
2023/12/12 11:41:10;;;;;;;10.90;6.38;;;13.60;99.90;;;;;;5040148;28;20524;-72
2023/12/12 11:43:36;;;;;;;10.52;6.47;;;13.60;99.90;;;;;;5034850;28;20033;-73
2023/12/12 11:46:21;;;;;;;9.93;6.57;;;13.60;99.90;;;;;;5039913;28;20041;-74
2023/12/12 11:48:47;;;;;;;10.80;6.10;;;13.60;99.90;;;;;;5036567;28;20568;-74
2023/12/12 11:51:35;;;;;;;10.57;6.30;;;13.60;99.90;;;;;;5035973;28;20032;-73
2023/12/12 11:54:08;;;;;;;7.75;4.18;;;13.60;99.90;;;;;;5036820;28;20059;-74
2023/12/12 11:56:33;;;;;;;9.60;4.38;;;13.70;99.90;;;;;;5039540;28;20692;-76
2023/12/12 11:59:00;;;;;;;9.00;5.17;;;13.70;99.90;;;;;;5034519;28;20029;-73
2023/12/12 12:01:26;;;;;;;10.02;4.95;;;13.60;99.90;;;;;;5040867;28;20082;-73
2023/12/12 12:03:52;;;;;;;7.27;4.20;;;13.70;99.90;;;;;;5038800;28;20056;-74
2023/12/12 12:06:18;;;;;;;10.20;5.13;;;13.80;99.90;;;;;;5040616;28;20086;-73
2023/12/12 12:08:44;;;;;;;5.95;3.65;;;13.80;99.90;;;;;;5048179;28;20481;-73
2023/12/12 12:11:11;;;;;;;11.55;5.63;;;13.90;99.90;;;;;;5041768;28;20039;-74
2023/12/12 12:13:39;;;;;;;;;;;14.00;99.90;;;;;;5043827;28;20572;-73
2023/12/12 12:16:06;;;;;;;32.33;9.43;;;14.10;99.90;;;;;;5040053;28;20617;-75
2023/12/12 12:18:32;;;;;;;19.27;10.07;;;14.20;99.90;;;;;;5039086;28;20025;-73
2023/12/12 12:20:58;;;;;;;25.57;10.47;;;14.20;99.90;;;;;;5030918;28;20044;-73
2023/12/12 12:23:24;;;;;;;27.95;10.38;;;14.20;99.90;;;;;;5042433;28;20028;-72
2023/12/12 12:25:50;;;;;;;24.83;11.23;;;14.10;99.90;;;;;;5037994;28;20083;-73
2023/12/12 12:28:16;;;;;;;22.08;11.32;;;14.00;99.90;;;;;;5035799;28;20068;-72
2023/12/12 12:30:46;;;;;;;18.02;10.63;;;14.00;99.90;;;;;;5037505;28;20040;-73
2023/12/12 12:33:13;;;;;;;18.33;10.18;;;14.00;99.90;;;;;;5037239;28;20060;-72
2023/12/12 12:35:50;;;;;;;24.60;9.43;;;13.90;99.90;;;;;;5037779;28;20382;-73
2023/12/12 12:38:26;;;;;;;13.45;8.00;;;13.90;99.90;;;;;;5043183;28;20445;-72